Flight Track Log - Related Links

Times and Time Zones

All times are in EDT time to prevent confusion due to time zone crossing. See the EJA831 flight status page for this flight to view local times or setup timezone preferences in your user account.

Time Position Orientation Groundspeed Altitude Reporting Facility
EDT Latitude Longitude Course Direction KTS MPH feet Rate Location/Type
Sun 11:22:56 AM 41.7881 -70.1764 23° Northeast 234 269 6,200  Level Boston Center
Sun 11:23:56 AM 41.8600 -70.1347 23° Northeast 255 293 9,100 2,950 Climbing Boston Center
Sun 11:24:56 AM 41.9364 -70.0903 23° Northeast 276 318 12,100 2,700 Climbing Boston Center
Sun 11:25:56 AM 42.0003 -70.0681 14° North 281 323 14,500 2,550 Climbing Boston Center
Sun 11:26:56 AM 42.0503 -70.1558 308° West 226 260 17,200 2,200 Climbing Boston Center
Sun 11:27:56 AM 42.0731 -70.2528 288° West 220 253 18,900 900 Climbing Boston Center
Sun 11:28:56 AM 42.1022 -70.3694 289° West 274 315 19,000 773 Climbing Boston Center
Sun 11:30:08 AM 42.1317 -70.5000 287° West 314 361 20,600 1,682 Climbing Boston Center
Sun 11:31:08 AM 42.1692 -70.6361 290° West 327 376 22,700 1,900 Climbing Boston Center
Sun 11:32:08 AM 42.1961 -70.7531 326° Northwest 322 371 24,400 1,450 Climbing Boston Center
Sun 11:33:08 AM 42.2019 -70.8650 274° West 317 365 25,600 1,300 Climbing Boston Center
Sun 11:34:08 AM 42.1992 -70.9828 268° West 317 365 27,000 1,250 Climbing Boston Center
Sun 11:35:08 AM 42.1967 -71.1033 268° West 317 365 28,100 1,100 Climbing Boston Center
Sun 11:36:08 AM 42.1939 -71.2294 268° West 329 379 29,200 1,100 Climbing Boston Center
Sun 11:37:08 AM 42.1931 -71.3528 270° West 329 379 30,300 1,100 Climbing Boston Center
Sun 11:38:08 AM 42.1900 -71.4789 268° West 329 379 31,400 1,250 Climbing Boston Center
Sun 11:39:08 AM 42.1847 -71.6081 267° West 323 372 32,800 1,200 Climbing Boston Center
Sun 11:40:08 AM 42.1836 -71.7283 269° West 328 377 33,800 600 Climbing Boston Center
Sun 11:41:08 AM 42.1800 -71.8544 268° West 333 383 34,000 100 Climbing Boston Center
Sun 11:42:08 AM 42.1783 -71.9583 269° West 338 389 34,000  Level Boston Center
Sun 11:43:08 AM 42.1750 -72.1208 268° West 356 410 34,000  Level Boston Center
Sun 11:44:08 AM 42.1731 -72.2525 269° West 356 410 34,000  Level Boston Center
Sun 11:45:08 AM 42.1692 -72.3897 268° West 361 415 34,000  Level Boston Center
Sun 11:46:08 AM 42.1650 -72.5214 268° West 366 421 34,000  Level Boston Center
Sun 11:47:08 AM 42.1625 -72.6586 269° West 366 421 34,000  Level Boston Center
Sun 11:48:08 AM 42.1561 -72.7931 266° West 366 421 34,000  Level Boston Center
Sun 11:49:08 AM 42.1536 -72.9133 268° West 366 421 34,000  Level Boston Center
Sun 11:50:08 AM 42.1508 -73.0506 268° West 366 421 34,000  Level Boston Center
Sun 11:51:08 AM 42.1458 -73.1850 267° West 366 421 34,000  Level Boston Center
Sun 11:52:08 AM 42.1428 -73.3192 268° West 366 421 34,000  Level Boston Center
Sun 11:53:08 AM 42.1436 -73.4592 271° West 350 403 34,000  Level Boston Center
Sun 11:54:08 AM 42.1381 -73.5964 267° West 351 404 34,000  Level Boston Center
Sun 11:55:08 AM 42.1306 -73.7194 265° West 361 415 34,000  Level Boston Center
Sun 11:56:08 AM 42.1247 -73.8536 267° West 366 421 34,000  Level Boston Center
Sun 11:57:20 AM 42.1206 -74.0131 268° West 366 421 34,000  Level Boston Center
Sun 11:58:20 AM 42.1144 -74.1444 266° West 366 421 34,000  Level Boston Center
Sun 11:59:20 AM 42.1103 -74.2817 268° West 366 421 34,000  Level Boston Center
Sun 12:00:20 PM 42.1036 -74.4269 267° West 366 421 34,000  Level Boston Center
Sun 12:02:32 PM 42.0333 -74.6997 251° West 370 426 34,000  Level New York Center
Sun 12:03:31 PM 41.9936 -74.8228 247° West 375 432 34,000  Level New York Center
Sun 12:04:32 PM 41.9539 -74.9486 247° West 370 426 34,000  Level New York Center
Sun 12:05:30 PM 41.9142 -75.0744 247° West 370 426 34,000  Level New York Center
Sun 12:06:31 PM 41.8739 -75.2025 247° West 376 433 34,000  Level New York Center
Sun 12:07:32 PM 41.8297 -75.3278 245° Southwest 376 433 34,000  Level New York Center
Sun 12:08:30 PM 41.7892 -75.4556 247° West 376 433 34,000  Level New York Center
Sun 12:09:30 PM 41.7467 -75.5833 246° West 376 433 34,000  Level New York Center
Sun 12:10:31 PM 41.7042 -75.7081 246° West 376 433 34,000  Level New York Center
Sun 12:11:31 PM 41.6611 -75.8381 246° West 376 433 34,000  Level New York Center
Sun 12:12:30 PM 41.6203 -75.9656 247° West 376 433 34,000  Level New York Center
Sun 12:13:31 PM 41.5769 -76.0953 246° West 376 433 34,000  Level New York Center
Sun 12:14:31 PM 41.5358 -76.2222 247° West 376 433 34,000  Level New York Center
Sun 12:15:33 PM 41.4942 -76.3544 247° West 381 438 34,000  Level New York Center
Sun 12:16:30 PM 41.4483 -76.4864 245° Southwest 393 452 34,000  Level New York Center
Sun 12:17:31 PM 41.4050 -76.6072 244° Southwest 388 447 34,000  Level New York Center
Sun 12:19:32 PM 41.3203 -76.8458 245° Southwest 383 441 34,000  Level New York Center
Sun 12:20:30 PM 41.2761 -76.9742 245° Southwest 383 441 34,000  Level New York Center
Sun 12:21:30 PM 41.2319 -77.1000 245° Southwest 383 441 34,000  Level New York Center
Sun 12:22:31 PM 41.1875 -77.2281 245° Southwest 383 441 34,000  Level New York Center
Sun 12:23:30 PM 41.1428 -77.3561 245° Southwest 388 447 34,000  Level New York Center
Sun 12:24:31 PM 41.0983 -77.4814 245° Southwest 388 447 34,000  Level New York Center
Sun 12:26:20 PM 41.0111 -77.7239 245° Southwest 389 448 34,000  Level Cleveland Center
Sun 12:27:20 PM 40.9644 -77.8525 244° Southwest 384 442 34,000  Level Cleveland Center
Sun 12:28:20 PM 40.9214 -77.9781 246° West 384 442 34,000  Level Cleveland Center
Sun 12:29:20 PM 40.8806 -78.1058 247° West 384 442 34,000  Level Cleveland Center
Sun 12:30:20 PM 40.8414 -78.2336 248° West 379 436 34,000  Level Cleveland Center
Sun 12:31:20 PM 40.8022 -78.3639 248° West 379 436 34,000  Level Cleveland Center
Sun 12:32:20 PM 40.7608 -78.4914 247° West 379 436 34,000  Level Cleveland Center
Sun 12:33:20 PM 40.7256 -78.6050 248° West 379 436 34,000  Level Cleveland Center
Sun 12:34:20 PM 40.6881 -78.7347 249° West 379 436 34,000  Level Cleveland Center
Sun 12:35:20 PM 40.6483 -78.8644 248° West 379 436 34,000  Level Cleveland Center
Sun 12:36:20 PM 40.6067 -79.0022 248° West 379 436 34,000  Level Cleveland Center
Sun 12:37:20 PM 40.5644 -79.1317 247° West 379 436 34,000  Level Cleveland Center
Sun 12:38:20 PM 40.5011 -79.2397 232° Southwest 379 436 34,000  Level Cleveland Center
Sun 12:39:20 PM 40.4231 -79.3286 221° Southwest 374 430 34,000  Level Cleveland Center
Sun 12:40:20 PM 40.3447 -79.4228 223° Southwest 374 430 34,000  Level Cleveland Center
Sun 12:41:20 PM 40.2644 -79.5164 222° Southwest 385 443 34,000  Level Cleveland Center
Sun 12:42:20 PM 40.1819 -79.6075 220° Southwest 390 449 34,000  Level Cleveland Center
Sun 12:43:20 PM 40.0992 -79.7011 221° Southwest 390 449 34,000  Level Cleveland Center
Sun 12:44:20 PM 40.0164 -79.7942 221° Southwest 390 449 34,000  Level Cleveland Center
Sun 12:45:20 PM 39.9336 -79.8872 221° Southwest 390 449 34,000  Level Cleveland Center
Sun 12:46:20 PM 39.8611 -79.9719 222° Southwest 390 449 34,000 -500 Level Cleveland Center
Sun 12:47:20 PM 39.7783 -80.0644 221° Southwest 390 449 33,000 -1,594 Descending Cleveland Center
Sun 12:49:32 PM 39.5936 -80.2664 220° Southwest 396 456 28,900 -1,825 Descending Indianapolis Center
Sun 12:50:34 PM 39.5075 -80.3622 221° Southwest 406 467 27,100 -1,902 Descending Indianapolis Center
Sun 12:51:35 PM 39.4081 -80.4733 221° Southwest 393 452 25,000 -1,512 Descending Indianapolis Center
Sun 12:52:37 PM 39.3272 -80.5611 220° Southwest 382 440 24,000 -484 Descending Indianapolis Center
Sun 12:53:39 PM 39.2489 -80.6453 220° Southwest 370 426 24,000 -387 Level Indianapolis Center
Sun 12:54:41 PM 39.1728 -80.7314 221° Southwest 364 419 23,200 -1,355 Descending Indianapolis Center
Sun 12:55:43 PM 39.0953 -80.8175 221° Southwest 366 421 21,200 -1,887 Descending Indianapolis Center
Sun 12:56:45 PM 39.0183 -80.9000 220° Southwest 363 418 19,300 -1,790 Descending Indianapolis Center
Sun 12:57:47 PM 38.9444 -80.9822 221° Southwest 353 406 17,500 -1,790 Descending Indianapolis Center
Sun 12:58:49 PM 38.8714 -81.0631 221° Southwest 348 400 15,600 -2,049 Descending Indianapolis Center
Sun 12:59:50 PM 38.7969 -81.1636 226° Southwest 324 373 13,300 -2,098 Descending Indianapolis Center
Sun 01:00:52 PM 38.7403 -81.2394 226° Southwest 297 342 11,300 -1,887 Descending Indianapolis Center
Sun 01:01:54 PM 38.6819 -81.3164 226° Southwest 297 342 9,400 -2,129 Descending Indianapolis Center
Sun 01:02:56 PM 38.6283 -81.3833 224° Southwest 271 312 6,900 -2,390 Descending Indianapolis Center
Sun 01:03:57 PM 38.5592 -81.4044 193° South 256 295 4,500 -1,902 Descending Indianapolis Center
Sun 01:04:59 PM 38.4953 -81.4306 198° South 242 278 3,000 -726 Descending Indianapolis Center
Sun 01:06:01 PM 38.4594 -81.4786 226° Southwest 204 235 3,000 -339 Level Indianapolis Center
Sun 01:07:03 PM 38.4322 -81.5153 227° Southwest 167 192 2,300 -629 Descending Indianapolis Center
Sun 01:08:05 PM 38.4097 -81.5472 228° Southwest 139 160 1,700 -537 Descending Indianapolis Center
Sun 01:09:06 PM 38.3842 -81.5817 227° Southwest 129 148 1,200 -492 Descending Indianapolis Center

Login

Don't have an account? Register now (free) for customized features, flight alerts, and more!